Time;durP1;ratioP1;P1;durP2;ratioP2;P2;SDS_P1;SDS_P2;PMS_P1;PMS_P2;Temp;Humidity;BMP_temperature;BMP_pressure;BME280_temperature;BME280_humidity;BME280_pressure;Samples;Min_cycle;Max_cycle;Signal;HPM_P1;HPM_P2
2020/12/09 00:00:43;;;;;;;10.97;8.27;;;12.80;74.00;;;;;;5062512;28;20488;-52
2020/12/09 00:03:09;;;;;;;9.47;7.77;;;12.90;73.90;;;;;;5065960;28;20454;-57
2020/12/09 00:05:37;;;;;;;11.10;7.90;;;12.90;73.90;;;;;;5063429;28;20517;-53
2020/12/09 00:08:04;;;;;;;11.30;8.17;;;12.90;73.80;;;;;;5065222;28;20514;-52
2020/12/09 00:10:31;;;;;;;9.60;7.90;;;12.90;73.90;;;;;;5065209;28;20461;-54
2020/12/09 00:12:58;;;;;;;10.07;7.63;;;13.00;73.50;;;;;;5066931;28;20505;-54
2020/12/09 00:15:25;;;;;;;9.03;7.67;;;13.10;73.30;;;;;;5063344;28;20458;-56
2020/12/09 00:17:51;;;;;;;9.60;7.67;;;13.10;73.10;;;;;;5063471;28;20521;-54
2020/12/09 00:20:19;;;;;;;13.20;9.20;;;13.10;73.10;;;;;;5063243;28;20481;-56
2020/12/09 00:22:46;;;;;;;10.93;8.10;;;13.10;72.90;;;;;;5068150;28;20467;-55
2020/12/09 00:25:13;;;;;;;9.60;8.00;;;13.00;73.20;;;;;;5061050;28;20477;-55
2020/12/09 00:27:41;;;;;;;14.40;8.77;;;13.00;73.30;;;;;;5063728;28;20434;-52
2020/12/09 00:30:08;;;;;;;14.90;7.87;;;12.90;74.30;;;;;;5059496;28;20441;-56
2020/12/09 00:32:35;;;;;;;10.90;8.80;;;12.90;73.80;;;;;;5060389;28;20469;-54
2020/12/09 00:35:02;;;;;;;10.20;8.30;;;12.80;73.90;;;;;;5062905;28;20507;-57
2020/12/09 00:37:29;;;;;;;10.83;8.30;;;12.80;73.90;;;;;;5062991;28;20493;-57
2020/12/09 00:39:55;;;;;;;10.10;8.40;;;12.90;74.40;;;;;;5062928;28;20576;-56
2020/12/09 00:42:23;;;;;;;12.30;8.23;;;12.80;73.80;;;;;;5062066;28;20466;-57
2020/12/09 00:44:50;;;;;;;10.30;8.10;;;12.90;73.80;;;;;;5065618;28;20434;-57
2020/12/09 00:47:17;;;;;;;10.53;8.40;;;12.90;73.50;;;;;;5063724;28;20520;-57
2020/12/09 00:52:25;;;;;;;11.13;8.90;;;12.90;73.60;;;;;;5064278;28;20432;-54
2020/12/09 00:54:51;;;;;;;12.63;8.90;;;12.80;73.70;;;;;;5063234;28;20463;-56
2020/12/09 00:57:23;;;;;;;11.70;9.20;;;12.80;73.70;;;;;;5063207;28;20492;-56
2020/12/09 00:59:50;;;;;;;11.67;8.60;;;12.90;73.60;;;;;;5063541;28;20548;-55
2020/12/09 01:02:17;;;;;;;11.73;8.83;;;12.90;73.70;;;;;;5056360;28;20473;-52
2020/12/09 01:04:49;;;;;;;13.70;9.87;;;12.90;73.60;;;;;;5064027;28;20558;-51
2020/12/09 01:07:16;;;;;;;10.90;8.33;;;12.90;74.30;;;;;;5064729;28;20509;-54
2020/12/09 01:09:43;;;;;;;13.60;8.73;;;12.90;73.60;;;;;;5062210;28;20499;-51
2020/12/09 01:12:10;;;;;;;13.60;8.87;;;12.90;73.50;;;;;;5064092;28;20464;-55
2020/12/09 01:14:38;;;;;;;12.07;8.83;;;12.90;73.70;;;;;;5063225;28;20474;-52
2020/12/09 01:17:05;;;;;;;13.43;9.47;;;12.80;73.60;;;;;;5061893;28;20520;-53
2020/12/09 01:19:32;;;;;;;13.57;9.47;;;12.90;73.60;;;;;;5061800;28;20565;-55
2020/12/09 01:21:59;;;;;;;14.60;10.00;;;12.90;73.40;;;;;;5062354;28;20510;-53
2020/12/09 01:24:25;;;;;;;12.37;9.60;;;12.90;73.50;;;;;;5063902;28;20464;-54
2020/12/09 01:26:52;;;;;;;12.90;8.97;;;12.90;73.40;;;;;;5063606;28;20526;-52
2020/12/09 01:29:20;;;;;;;12.63;9.83;;;12.90;73.50;;;;;;5063361;28;20427;-56
2020/12/09 01:31:48;;;;;;;18.40;9.43;;;12.90;73.30;;;;;;5061299;28;20513;-57
2020/12/09 01:34:15;;;;;;;13.47;9.97;;;12.90;73.40;;;;;;5062132;28;20497;-55
2020/12/09 01:36:42;;;;;;;14.23;10.10;;;12.90;73.50;;;;;;5062369;28;20476;-56
2020/12/09 01:39:09;;;;;;;15.60;10.03;;;12.90;73.60;;;;;;5061295;28;20513;-55
2020/12/09 01:41:35;;;;;;;10.97;9.33;;;12.90;73.60;;;;;;5063047;28;20523;-56
2020/12/09 01:44:02;;;;;;;12.93;10.03;;;13.00;73.40;;;;;;5063290;28;20477;-55
2020/12/09 01:46:30;;;;;;;14.73;9.80;;;12.90;73.40;;;;;;5061424;28;20458;-52
2020/12/09 01:48:58;;;;;;;14.83;9.83;;;12.90;73.40;;;;;;5064891;28;20442;-57
2020/12/09 01:51:25;;;;;;;12.83;10.00;;;12.90;73.30;;;;;;5061169;28;20547;-54
2020/12/09 01:53:52;;;;;;;14.07;10.13;;;12.90;73.40;;;;;;5063498;28;20529;-52
2020/12/09 01:56:20;;;;;;;11.40;9.50;;;12.90;73.60;;;;;;5064883;28;20437;-55
2020/12/09 01:58:47;;;;;;;12.47;9.90;;;12.90;73.40;;;;;;5061572;28;20438;-52
2020/12/09 02:01:15;;;;;;;16.10;10.87;;;12.90;73.40;;;;;;5068450;28;20537;-52
2020/12/09 02:03:41;;;;;;;11.77;9.90;;;12.90;73.60;;;;;;5068570;28;20521;-51
2020/12/09 02:06:09;;;;;;;14.10;10.70;;;12.90;73.40;;;;;;5063760;28;20525;-54
2020/12/09 02:08:36;;;;;;;14.33;10.47;;;13.00;73.30;;;;;;5062142;28;20541;-52
2020/12/09 02:11:03;;;;;;;13.77;9.77;;;12.90;73.30;;;;;;5061598;28;20513;-56
2020/12/09 02:13:30;;;;;;;16.03;10.97;;;12.90;73.30;;;;;;5063420;28;20554;-53
2020/12/09 02:15:57;;;;;;;16.10;10.93;;;12.90;73.40;;;;;;5062371;28;20495;-51
2020/12/09 02:18:24;;;;;;;13.20;10.20;;;12.90;73.40;;;;;;5064606;28;20477;-53
2020/12/09 02:20:51;;;;;;;13.00;9.90;;;13.00;73.30;;;;;;5063492;28;20473;-50
2020/12/09 02:23:19;;;;;;;15.80;11.27;;;13.00;73.00;;;;;;5062943;28;20477;-54
2020/12/09 02:25:46;;;;;;;15.53;11.33;;;12.90;73.10;;;;;;5061628;28;20454;-54
2020/12/09 02:28:13;;;;;;;15.40;11.07;;;12.90;73.00;;;;;;5061128;28;20465;-52
2020/12/09 02:30:40;;;;;;;17.13;12.27;;;12.90;72.90;;;;;;5073199;28;20454;-53
2020/12/09 02:33:07;;;;;;;14.60;10.87;;;13.00;72.70;;;;;;5073568;28;20465;-53
2020/12/09 02:35:34;;;;;;;17.13;11.70;;;13.00;72.80;;;;;;5074243;28;20492;-52
2020/12/09 02:38:01;;;;;;;14.60;11.23;;;13.00;72.70;;;;;;5077376;28;20507;-54
2020/12/09 02:40:29;;;;;;;18.07;11.60;;;12.90;72.80;;;;;;5076748;28;20535;-52
2020/12/09 02:42:56;;;;;;;16.63;11.70;;;12.90;72.90;;;;;;5077293;28;20441;-56
2020/12/09 02:45:23;;;;;;;17.50;11.80;;;12.90;72.90;;;;;;5077243;28;20549;-56
2020/12/09 02:47:50;;;;;;;17.17;11.93;;;12.80;73.10;;;;;;5077349;28;20499;-52
2020/12/09 02:50:17;;;;;;;18.80;12.97;;;12.80;73.10;;;;;;5076780;28;20445;-54
2020/12/09 02:52:44;;;;;;;18.47;12.90;;;12.90;72.80;;;;;;5077043;28;20430;-53
2020/12/09 02:55:10;;;;;;;17.77;12.47;;;12.70;72.90;;;;;;5077047;28;20461;-56
2020/12/09 02:57:38;;;;;;;19.40;14.17;;;12.80;73.00;;;;;;5077311;28;20425;-51
2020/12/09 03:00:06;;;;;;;18.07;12.80;;;12.80;73.00;;;;;;5076277;28;20493;-53
2020/12/09 03:02:32;;;;;;;19.40;13.40;;;12.70;72.80;;;;;;5076892;28;20453;-52
2020/12/09 03:05:00;;;;;;;20.83;13.30;;;12.80;72.80;;;;;;5076791;28;20434;-52
2020/12/09 03:07:27;;;;;;;20.60;13.40;;;12.70;72.80;;;;;;5076989;28;20517;-51
2020/12/09 03:09:53;;;;;;;20.53;14.47;;;12.80;72.70;;;;;;5076346;28;20454;-52
2020/12/09 03:12:20;;;;;;;20.53;13.57;;;12.80;72.70;;;;;;5076626;28;20481;-52
2020/12/09 03:14:48;;;;;;;20.50;13.30;;;12.70;72.70;;;;;;5076723;28;20447;-52
2020/12/09 03:17:15;;;;;;;20.83;14.30;;;12.80;72.50;;;;;;5076576;28;20454;-53
2020/12/09 03:19:42;;;;;;;21.87;14.20;;;12.80;72.50;;;;;;5076216;28;20588;-55
2020/12/09 03:22:11;;;;;;;22.07;14.70;;;12.80;72.30;;;;;;5076607;28;20491;-56
2020/12/09 03:24:37;;;;;;;22.70;14.37;;;12.80;72.00;;;;;;5076378;28;20488;-53
2020/12/09 03:27:06;;;;;;;23.57;14.27;;;12.70;72.40;;;;;;5076355;28;20524;-51
2020/12/09 03:29:32;;;;;;;21.40;13.97;;;12.70;72.50;;;;;;5076457;28;20505;-51
2020/12/09 03:32:00;;;;;;;21.77;14.50;;;12.70;72.40;;;;;;5075345;28;20532;-53
2020/12/09 03:34:27;;;;;;;22.27;15.13;;;12.70;72.20;;;;;;5077003;28;20464;-50
2020/12/09 03:36:54;;;;;;;26.63;15.97;;;12.70;72.30;;;;;;5076471;28;20529;-49
2020/12/09 03:39:21;;;;;;;26.17;15.93;;;12.80;72.10;;;;;;5071202;28;20492;-53
2020/12/09 03:41:47;;;;;;;23.03;14.07;;;12.70;72.10;;;;;;5075936;28;20462;-53
2020/12/09 03:44:15;;;;;;;24.17;16.00;;;12.70;72.20;;;;;;5076350;28;20525;-50
2020/12/09 03:46:41;;;;;;;24.93;16.00;;;12.60;72.30;;;;;;5075510;28;20466;-50
2020/12/09 03:49:09;;;;;;;28.30;16.23;;;12.70;72.20;;;;;;5075931;28;20461;-51
2020/12/09 03:51:36;;;;;;;23.80;15.43;;;12.70;72.20;;;;;;5075482;28;20498;-50
2020/12/09 03:54:03;;;;;;;25.20;16.00;;;12.70;72.10;;;;;;5075758;28;20497;-52
2020/12/09 03:56:30;;;;;;;24.20;15.43;;;12.60;72.10;;;;;;5075896;28;20484;-50
2020/12/09 03:58:57;;;;;;;25.40;15.80;;;12.60;72.20;;;;;;5075694;28;20473;-53
2020/12/09 04:01:24;;;;;;;25.63;15.60;;;12.60;72.10;;;;;;5075552;28;20574;-51
2020/12/09 04:03:50;;;;;;;27.80;16.87;;;12.60;72.00;;;;;;5075999;28;20438;-53
2020/12/09 04:06:19;;;;;;;25.67;16.03;;;12.60;72.00;;;;;;5075675;28;20452;-50
2020/12/09 04:08:45;;;;;;;26.97;16.00;;;12.60;72.10;;;;;;5075255;28;20454;-51
2020/12/09 04:11:12;;;;;;;28.37;17.30;;;12.70;71.90;;;;;;5072908;28;20517;-55
2020/12/09 04:13:39;;;;;;;27.57;16.93;;;12.70;71.80;;;;;;5073128;28;20533;-51
2020/12/09 04:16:06;;;;;;;22.90;15.00;;;12.70;71.70;;;;;;5075178;28;20883;-52
2020/12/09 04:18:32;;;;;;;26.07;16.63;;;12.70;71.60;;;;;;5057273;28;20461;-54
2020/12/09 04:21:00;;;;;;;27.77;16.87;;;12.60;71.80;;;;;;5054916;28;20470;-54
2020/12/09 04:23:28;;;;;;;26.17;15.70;;;12.60;72.00;;;;;;5055377;28;20469;-54
2020/12/09 04:25:55;;;;;;;27.40;17.07;;;12.60;71.60;;;;;;5055331;28;20489;-55
2020/12/09 04:28:21;;;;;;;24.60;15.80;;;12.60;71.80;;;;;;5054970;28;20529;-54
2020/12/09 04:30:48;;;;;;;28.70;16.20;;;12.70;71.60;;;;;;5054717;28;20479;-53
2020/12/09 04:33:15;;;;;;;28.30;16.80;;;12.60;71.50;;;;;;5055291;28;20473;-56
2020/12/09 04:35:42;;;;;;;26.60;16.30;;;12.60;71.70;;;;;;5055232;28;20534;-52
2020/12/09 04:38:10;;;;;;;25.23;16.00;;;12.50;71.70;;;;;;5055106;28;20517;-56
2020/12/09 04:40:38;;;;;;;27.33;16.93;;;12.60;71.40;;;;;;5054218;28;20538;-56
2020/12/09 04:43:07;;;;;;;26.33;16.40;;;12.60;71.50;;;;;;5054815;28;20485;-53
2020/12/09 04:45:34;;;;;;;29.90;17.50;;;12.60;71.50;;;;;;5055003;28;20535;-52
2020/12/09 04:48:06;;;;;;;28.33;17.73;;;12.50;71.60;;;;;;5055056;28;20442;-55
2020/12/09 04:50:49;;;;;;;27.57;17.27;;;12.50;71.70;;;;;;5054474;28;20439;-55
2020/12/09 04:53:21;;;;;;;34.33;18.13;;;12.50;71.40;;;;;;5054671;28;20522;-57
2020/12/09 04:55:50;;;;;;;29.33;16.73;;;12.50;71.50;;;;;;5054937;28;20474;-54
2020/12/09 04:58:19;;;;;;;26.80;17.30;;;12.50;71.50;;;;;;5054980;28;20435;-52
2020/12/09 05:00:46;;;;;;;30.47;18.80;;;12.50;71.50;;;;;;5054124;28;20548;-55
2020/12/09 05:03:14;;;;;;;29.10;17.87;;;12.60;71.30;;;;;;5054689;28;20481;-56
2020/12/09 05:05:41;;;;;;;29.27;18.23;;;12.50;71.10;;;;;;5054502;28;20454;-53
2020/12/09 05:08:13;;;;;;;31.33;18.70;;;12.50;71.20;;;;;;5054346;28;20530;-55
2020/12/09 05:10:48;;;;;;;27.57;17.37;;;12.40;71.40;;;;;;5054411;28;20509;-56
2020/12/09 05:13:23;;;;;;;28.47;17.60;;;12.50;71.30;;;;;;5054458;28;20422;-57
2020/12/09 05:15:55;;;;;;;28.57;16.67;;;12.50;71.10;;;;;;5054334;28;20547;-50
2020/12/09 05:18:37;;;;;;;27.87;18.03;;;12.50;71.20;;;;;;5054125;28;20517;-55
2020/12/09 05:21:16;;;;;;;32.33;18.13;;;12.50;71.20;;;;;;5052378;28;20478;-50
2020/12/09 05:23:44;;;;;;;29.70;17.73;;;12.40;71.20;;;;;;5054239;28;20465;-51
2020/12/09 05:26:32;;;;;;;29.37;17.67;;;12.40;71.40;;;;;;5054036;28;20439;-50
2020/12/09 05:29:05;;;;;;;27.50;17.20;;;12.40;71.40;;;;;;5049786;28;20533;-52
2020/12/09 05:31:33;;;;;;;27.07;17.20;;;12.40;71.10;;;;;;5053650;28;20514;-53
2020/12/09 05:34:00;;;;;;;29.40;17.87;;;12.40;71.00;;;;;;5054265;28;20489;-53
2020/12/09 05:36:27;;;;;;;31.17;17.70;;;12.40;71.10;;;;;;5054123;28;20513;-52
2020/12/09 05:39:04;;;;;;;31.60;18.53;;;12.30;71.20;;;;;;5054030;28;20434;-55
2020/12/09 05:41:32;;;;;;;27.93;17.17;;;12.30;71.30;;;;;;5053507;28;20557;-54
2020/12/09 05:44:00;;;;;;;31.50;17.97;;;12.40;71.20;;;;;;5054087;28;20534;-56
2020/12/09 05:46:28;;;;;;;32.30;18.10;;;12.40;71.20;;;;;;5053923;28;20435;-52
2020/12/09 05:48:55;;;;;;;29.20;17.50;;;12.30;71.10;;;;;;5059958;28;20525;-52
2020/12/09 05:51:22;;;;;;;32.30;18.00;;;12.40;71.10;;;;;;5073393;28;20532;-52
2020/12/09 05:53:49;;;;;;;29.87;18.27;;;12.30;71.10;;;;;;5073947;28;20526;-55
2020/12/09 05:56:17;;;;;;;35.07;18.77;;;12.40;71.00;;;;;;5073961;28;20442;-49
2020/12/09 05:58:44;;;;;;;32.77;19.23;;;12.30;70.90;;;;;;5073951;28;20522;-52
2020/12/09 06:01:14;;;;;;;30.17;18.03;;;12.30;71.20;;;;;;5073386;28;20473;-50
2020/12/09 06:03:43;;;;;;;34.67;18.37;;;12.30;71.30;;;;;;5073694;28;20437;-53
2020/12/09 06:06:20;;;;;;;29.60;17.57;;;12.30;71.20;;;;;;5073691;28;20462;-50
2020/12/09 06:08:48;;;;;;;29.80;17.47;;;12.30;71.20;;;;;;5074041;28;20541;-54
2020/12/09 06:11:17;;;;;;;30.57;16.73;;;12.40;70.90;;;;;;5075792;28;20430;-53
2020/12/09 06:13:44;;;;;;;30.40;18.20;;;12.30;71.00;;;;;;5077969;28;20540;-50
2020/12/09 06:16:11;;;;;;;32.83;17.93;;;12.30;70.90;;;;;;5077851;28;20461;-54
2020/12/09 06:18:39;;;;;;;29.30;18.53;;;12.30;70.80;;;;;;5077690;28;20442;-51
2020/12/09 06:21:07;;;;;;;33.97;18.30;;;12.30;70.90;;;;;;5076997;28;20556;-49
2020/12/09 06:23:34;;;;;;;32.10;18.90;;;12.30;70.80;;;;;;5077895;28;20473;-53
2020/12/09 06:26:02;;;;;;;32.93;20.10;;;12.30;70.90;;;;;;5077616;28;20468;-54
2020/12/09 06:28:30;;;;;;;32.03;17.90;;;12.30;70.90;;;;;;5077529;28;20465;-51
2020/12/09 06:30:57;;;;;;;26.73;16.87;;;12.30;70.70;;;;;;5076752;28;20600;-53
2020/12/09 06:33:36;;;;;;;30.97;18.20;;;12.40;70.50;;;;;;5077266;28;20492;-55
2020/12/09 06:36:11;;;;;;;26.60;17.00;;;12.50;70.10;;;;;;5077506;28;20495;-55
2020/12/09 06:38:38;;;;;;;26.90;16.60;;;12.50;70.10;;;;;;5077713;28;20523;-53
2020/12/09 06:41:22;;;;;;;28.07;17.60;;;12.40;70.20;;;;;;5076615;28;20508;-52
2020/12/09 06:44:02;;;;;;;29.20;17.27;;;12.40;70.60;;;;;;5077331;28;20476;-53
2020/12/09 06:46:36;;;;;;;31.53;17.73;;;12.40;70.50;;;;;;5077182;28;20429;-52
2020/12/09 06:49:03;;;;;;;28.60;17.30;;;12.30;70.80;;;;;;5077194;28;20448;-53
2020/12/09 06:51:38;;;;;;;27.27;16.60;;;12.30;70.80;;;;;;5069805;28;20484;-53
2020/12/09 06:54:14;;;;;;;29.77;16.87;;;12.30;70.80;;;;;;5051895;28;20557;-55
2020/12/09 06:56:42;;;;;;;27.07;17.13;;;12.20;70.80;;;;;;5057392;28;20519;-54
2020/12/09 06:59:23;;;;;;;28.30;16.60;;;12.30;70.80;;;;;;5056946;28;20485;-54
2020/12/09 07:02:00;;;;;;;28.70;17.23;;;12.20;70.90;;;;;;5056316;28;20551;-54
2020/12/09 07:05:01;;;;;;;26.60;16.57;;;12.30;70.70;;;;;;5056978;28;20474;-51
2020/12/09 07:07:32;;;;;;;25.00;16.83;;;12.30;70.80;;;;;;5056903;28;20508;-54
2020/12/09 07:09:59;;;;;;;25.37;15.97;;;12.30;70.80;;;;;;5056210;28;20561;-55
2020/12/09 07:12:26;;;;;;;27.90;16.83;;;12.20;70.80;;;;;;5056582;28;20525;-52
2020/12/09 07:14:53;;;;;;;27.87;16.83;;;12.20;70.90;;;;;;5073401;28;20441;-56
2020/12/09 07:17:21;;;;;;;27.40;17.50;;;12.20;71.00;;;;;;5076622;28;20536;-53
2020/12/09 07:19:48;;;;;;;28.10;17.47;;;12.20;71.00;;;;;;5076178;28;20524;-56
2020/12/09 07:22:15;;;;;;;26.63;17.10;;;12.20;71.00;;;;;;5076636;28;20573;-53
2020/12/09 07:24:42;;;;;;;29.87;17.90;;;12.20;71.00;;;;;;5076318;28;20560;-55
2020/12/09 07:27:12;;;;;;;29.83;16.90;;;12.20;71.00;;;;;;5076532;28;20430;-56
2020/12/09 07:29:40;;;;;;;25.70;16.20;;;12.20;71.70;;;;;;5076003;28;20469;-51
2020/12/09 07:32:07;;;;;;;26.70;16.33;;;12.20;70.80;;;;;;5076583;28;20476;-56
2020/12/09 07:34:34;;;;;;;26.43;17.27;;;12.20;70.70;;;;;;5076560;28;20487;-55
2020/12/09 07:37:01;;;;;;;29.60;16.93;;;12.20;70.90;;;;;;5076617;28;20521;-53
2020/12/09 07:39:29;;;;;;;27.80;16.93;;;12.30;71.40;;;;;;5076174;28;20493;-55
2020/12/09 07:42:00;;;;;;;29.83;17.03;;;12.20;70.50;;;;;;5075492;28;20501;-51
2020/12/09 07:44:27;;;;;;;28.83;17.40;;;12.20;70.70;;;;;;5076196;28;20513;-56
2020/12/09 07:46:55;;;;;;;27.83;17.23;;;12.20;70.80;;;;;;5076151;28;20445;-54
2020/12/09 07:49:22;;;;;;;25.33;15.67;;;12.20;70.70;;;;;;5076335;28;20484;-54
2020/12/09 07:51:51;;;;;;;25.77;15.90;;;12.10;70.70;;;;;;5075693;28;20473;-54
2020/12/09 07:54:18;;;;;;;26.57;15.83;;;12.20;70.90;;;;;;5075784;28;20466;-56
2020/12/09 07:56:45;;;;;;;26.87;16.27;;;12.20;70.70;;;;;;5075770;28;20440;-55
2020/12/09 07:59:13;;;;;;;26.13;16.17;;;12.20;70.70;;;;;;5075753;28;20445;-56
2020/12/09 08:01:40;;;;;;;29.20;17.30;;;12.20;70.60;;;;;;5075186;28;20607;-54
2020/12/09 08:04:07;;;;;;;27.50;16.93;;;12.20;70.50;;;;;;5075449;28;20489;-54
2020/12/09 08:06:34;;;;;;;27.53;16.17;;;12.20;70.50;;;;;;5075782;28;20485;-54
2020/12/09 08:09:13;;;;;;;28.10;16.60;;;12.20;70.70;;;;;;5070349;28;20485;-56
2020/12/09 08:11:40;;;;;;;27.73;16.97;;;12.30;70.30;;;;;;5075132;28;20472;-55
2020/12/09 08:14:07;;;;;;;25.20;16.00;;;12.40;69.90;;;;;;5075253;28;20495;-56
2020/12/09 08:16:35;;;;;;;29.33;17.40;;;12.50;69.80;;;;;;5074370;28;20487;-57
2020/12/09 08:19:06;;;;;;;25.50;16.90;;;12.50;69.60;;;;;;5074668;28;20484;-51
2020/12/09 08:21:33;;;;;;;27.90;16.10;;;12.60;69.40;;;;;;5074508;28;20549;-52
2020/12/09 08:24:09;;;;;;;27.13;17.07;;;12.50;69.50;;;;;;5069756;28;20522;-56
2020/12/09 08:26:37;;;;;;;30.10;17.60;;;12.30;69.80;;;;;;5055631;28;20419;-55
2020/12/09 08:29:04;;;;;;;27.57;16.47;;;12.30;70.00;;;;;;5055365;28;20496;-50
2020/12/09 08:31:31;;;;;;;29.00;16.87;;;12.30;70.00;;;;;;5054701;28;20454;-51
2020/12/09 08:33:58;;;;;;;28.13;16.40;;;12.30;70.20;;;;;;5054872;28;20462;-49
2020/12/09 08:36:26;;;;;;;28.27;16.90;;;12.30;70.30;;;;;;5054908;28;20434;-52
2020/12/09 08:38:58;;;;;;;26.83;16.17;;;12.20;70.40;;;;;;5055269;28;20466;-55
2020/12/09 08:41:26;;;;;;;24.23;15.80;;;12.30;70.30;;;;;;5054656;28;20478;-49
2020/12/09 08:43:55;;;;;;;26.03;16.07;;;12.30;70.20;;;;;;5055069;28;20438;-51
2020/12/09 08:46:22;;;;;;;28.50;17.43;;;12.20;70.50;;;;;;5054810;28;20478;-50
2020/12/09 08:48:50;;;;;;;31.27;16.30;;;12.20;70.50;;;;;;5054950;28;20504;-54
2020/12/09 08:51:22;;;;;;;28.00;16.13;;;12.30;70.20;;;;;;5054331;28;20494;-51
2020/12/09 08:53:49;;;;;;;31.20;17.20;;;12.30;70.30;;;;;;5055125;28;20542;-50
2020/12/09 08:56:16;;;;;;;28.23;16.67;;;12.20;70.20;;;;;;5054868;28;20517;-50
2020/12/09 08:58:42;;;;;;;26.90;16.20;;;12.20;70.50;;;;;;5054776;28;20531;-50
2020/12/09 09:01:09;;;;;;;30.47;16.93;;;12.20;70.40;;;;;;5053893;28;20517;-52
2020/12/09 09:03:39;;;;;;;26.30;17.20;;;12.20;71.00;;;;;;5054718;28;20482;-54
2020/12/09 09:06:06;;;;;;;26.03;15.50;;;12.30;70.30;;;;;;5055066;28;20484;-52
2020/12/09 09:08:34;;;;;;;25.87;16.33;;;12.20;70.40;;;;;;5054692;28;20473;-53
2020/12/09 09:11:01;;;;;;;25.77;15.93;;;12.20;70.50;;;;;;5053923;28;20525;-53
2020/12/09 09:13:27;;;;;;;25.87;15.90;;;12.20;70.50;;;;;;5059801;28;20518;-53
2020/12/09 09:15:54;;;;;;;26.97;16.57;;;12.20;70.50;;;;;;5074265;28;20532;-49
2020/12/09 09:18:21;;;;;;;28.63;16.30;;;12.20;70.50;;;;;;5074652;28;20480;-51
2020/12/09 09:20:50;;;;;;;28.53;17.13;;;12.20;70.50;;;;;;5073742;28;20473;-53
2020/12/09 09:23:17;;;;;;;27.97;16.70;;;12.20;70.40;;;;;;5069695;28;20556;-56
2020/12/09 09:25:44;;;;;;;28.57;16.60;;;12.20;70.20;;;;;;5074671;28;20472;-54
2020/12/09 09:28:11;;;;;;;29.07;16.43;;;12.20;70.50;;;;;;5073925;28;20509;-55
2020/12/09 09:30:38;;;;;;;27.00;16.10;;;12.20;70.50;;;;;;5073898;28;20466;-52
2020/12/09 09:33:06;;;;;;;28.40;16.90;;;12.20;70.40;;;;;;5074258;28;20448;-56
2020/12/09 09:35:33;;;;;;;28.20;17.10;;;12.30;70.40;;;;;;5074284;28;20453;-52
2020/12/09 09:38:00;;;;;;;28.30;17.13;;;12.20;71.00;;;;;;5073947;28;20434;-55
2020/12/09 09:40:26;;;;;;;28.53;16.10;;;12.20;70.00;;;;;;5072017;28;20434;-53
2020/12/09 09:42:55;;;;;;;31.03;17.20;;;12.30;70.10;;;;;;5073977;28;20491;-54
2020/12/09 09:45:24;;;;;;;25.50;16.13;;;12.30;70.10;;;;;;5073360;28;20426;-56
2020/12/09 09:47:50;;;;;;;26.70;16.50;;;12.30;69.90;;;;;;5074050;28;20488;-55
2020/12/09 09:50:17;;;;;;;30.00;17.13;;;12.30;70.00;;;;;;5064447;28;20513;-56
2020/12/09 09:52:44;;;;;;;26.33;15.77;;;12.30;70.10;;;;;;5074148;28;20453;-54
2020/12/09 09:55:12;;;;;;;29.50;16.73;;;12.20;70.20;;;;;;5073993;28;20544;-52
2020/12/09 09:57:38;;;;;;;25.40;16.43;;;12.20;70.20;;;;;;5073590;28;20434;-54
2020/12/09 10:00:07;;;;;;;27.40;16.50;;;12.10;70.30;;;;;;5073080;28;20440;-53
2020/12/09 10:02:34;;;;;;;28.30;16.23;;;12.20;70.20;;;;;;5074017;28;20526;-54
2020/12/09 10:05:01;;;;;;;29.67;16.43;;;12.20;70.20;;;;;;5073976;28;20532;-55
2020/12/09 10:07:28;;;;;;;25.30;15.70;;;12.20;70.20;;;;;;5074266;28;20458;-54
2020/12/09 10:09:55;;;;;;;28.23;16.40;;;12.30;70.10;;;;;;5072973;28;20442;-55
2020/12/09 10:12:22;;;;;;;29.20;17.33;;;12.30;70.10;;;;;;5073968;28;20465;-53
2020/12/09 10:14:49;;;;;;;28.03;16.10;;;12.20;70.20;;;;;;5057474;28;20441;-55
2020/12/09 10:17:17;;;;;;;27.87;17.27;;;12.30;70.20;;;;;;5053689;28;20454;-57
2020/12/09 10:19:44;;;;;;;27.80;16.33;;;12.30;69.90;;;;;;5053083;28;20442;-56
2020/12/09 10:22:11;;;;;;;27.30;16.20;;;12.30;70.00;;;;;;5053390;28;20481;-54
2020/12/09 10:24:38;;;;;;;28.67;17.13;;;12.30;69.90;;;;;;5053637;28;20446;-56
2020/12/09 10:27:05;;;;;;;32.10;17.10;;;12.30;69.90;;;;;;5053854;28;20466;-56
2020/12/09 10:29:32;;;;;;;27.53;16.17;;;12.30;69.80;;;;;;5053490;28;20470;-55
2020/12/09 10:31:59;;;;;;;26.80;16.57;;;12.40;69.70;;;;;;5053112;28;20426;-55
2020/12/09 10:34:26;;;;;;;28.70;16.17;;;12.30;69.60;;;;;;5053450;28;20474;-53
2020/12/09 10:36:53;;;;;;;26.43;15.63;;;12.40;69.60;;;;;;5053590;28;20454;-51
2020/12/09 10:39:21;;;;;;;27.30;16.10;;;12.40;69.50;;;;;;5054499;28;20470;-53
2020/12/09 10:41:49;;;;;;;27.50;15.77;;;12.30;69.50;;;;;;5059101;28;20469;-54
2020/12/09 10:44:16;;;;;;;29.80;16.13;;;12.30;69.50;;;;;;5073138;28;20461;-57
2020/12/09 10:46:43;;;;;;;27.87;16.60;;;12.30;69.50;;;;;;5066257;28;20534;-57
2020/12/09 10:49:11;;;;;;;24.70;15.57;;;12.30;69.60;;;;;;5071153;28;20442;-57
2020/12/09 10:51:43;;;;;;;27.07;16.40;;;12.30;69.50;;;;;;5069868;28;20510;-57
2020/12/09 10:54:10;;;;;;;30.00;16.97;;;12.40;69.30;;;;;;5061319;28;20446;-54
2020/12/09 10:56:37;;;;;;;30.80;17.60;;;12.40;69.20;;;;;;5054263;28;20447;-56
2020/12/09 10:59:04;;;;;;;28.23;17.30;;;12.40;69.10;;;;;;5066163;28;20433;-53
2020/12/09 11:01:32;;;;;;;31.60;17.10;;;12.30;69.30;;;;;;5075594;28;20516;-56
2020/12/09 11:03:59;;;;;;;25.93;15.83;;;12.40;69.00;;;;;;5076351;28;20456;-55
2020/12/09 11:06:29;;;;;;;30.20;17.10;;;12.40;68.90;;;;;;5076667;28;20453;-56
2020/12/09 11:08:57;;;;;;;29.73;17.40;;;12.40;69.00;;;;;;5071545;28;20463;-57
2020/12/09 11:11:25;;;;;;;28.47;16.50;;;12.40;69.00;;;;;;5066068;28;20543;-56
2020/12/09 11:13:52;;;;;;;29.90;17.80;;;12.40;69.00;;;;;;5071569;28;20518;-56
2020/12/09 11:16:19;;;;;;;34.13;17.10;;;12.30;69.00;;;;;;5073307;28;20528;-53
2020/12/09 11:18:46;;;;;;;31.27;17.70;;;12.30;69.10;;;;;;5066041;28;20534;-52
2020/12/09 11:21:16;;;;;;;30.37;17.90;;;12.30;68.90;;;;;;5063986;28;20498;-56
2020/12/09 11:23:43;;;;;;;29.97;17.30;;;12.30;69.00;;;;;;5067354;28;20482;-55
2020/12/09 11:26:10;;;;;;;28.30;16.93;;;12.30;68.90;;;;;;5074393;28;20449;-57
2020/12/09 11:28:37;;;;;;;31.17;18.17;;;12.30;68.80;;;;;;5068038;28;20430;-54
2020/12/09 11:31:04;;;;;;;32.23;18.20;;;12.40;68.60;;;;;;5062062;28;20431;-54
2020/12/09 11:33:31;;;;;;;32.80;18.80;;;12.30;68.50;;;;;;5067507;28;20529;-56
2020/12/09 11:35:58;;;;;;;33.83;18.70;;;12.30;68.70;;;;;;5063837;28;20541;-54
2020/12/09 11:38:25;;;;;;;31.80;18.70;;;12.30;68.60;;;;;;5064673;28;20434;-54
2020/12/09 11:40:52;;;;;;;31.83;18.50;;;12.30;68.50;;;;;;5064958;28;20441;-54
2020/12/09 11:43:20;;;;;;;31.43;17.90;;;12.30;68.30;;;;;;5063697;28;20461;-55
2020/12/09 11:45:47;;;;;;;34.57;19.53;;;12.30;68.20;;;;;;5063565;28;20495;-57
2020/12/09 11:48:14;;;;;;;32.73;19.37;;;12.30;68.20;;;;;;5065062;28;20434;-55
2020/12/09 11:50:41;;;;;;;33.93;19.50;;;12.30;68.40;;;;;;5065565;28;20506;-56
2020/12/09 11:53:07;;;;;;;33.10;18.90;;;12.30;68.20;;;;;;5069772;28;20472;-57
2020/12/09 11:55:34;;;;;;;31.37;18.20;;;12.30;68.20;;;;;;5069423;28;20522;-55
2020/12/09 11:58:01;;;;;;;31.83;18.07;;;12.30;68.20;;;;;;5063271;28;20546;-56
2020/12/09 12:00:29;;;;;;;32.77;19.03;;;12.40;68.20;;;;;;5064682;28;20461;-57
2020/12/09 12:02:56;;;;;;;33.37;18.60;;;12.30;68.20;;;;;;5067767;28;20505;-57
2020/12/09 12:05:25;;;;;;;34.70;18.93;;;12.30;68.40;;;;;;5063330;28;20458;-57
2020/12/09 12:07:52;;;;;;;32.63;18.97;;;12.30;68.20;;;;;;5064877;28;20466;-57
2020/12/09 12:10:19;;;;;;;33.00;18.90;;;12.20;68.50;;;;;;5062001;28;20441;-57
2020/12/09 12:12:45;;;;;;;30.53;18.73;;;12.30;68.50;;;;;;5055402;28;20466;-57
2020/12/09 12:15:12;;;;;;;32.47;18.70;;;12.30;68.50;;;;;;5074968;28;20469;-56
2020/12/09 12:17:40;;;;;;;35.87;19.73;;;12.40;68.20;;;;;;5075488;28;20466;-57
2020/12/09 12:20:07;;;;;;;33.20;18.90;;;12.30;68.10;;;;;;5074600;28;20501;-55
2020/12/09 12:22:33;;;;;;;33.63;19.20;;;12.30;68.00;;;;;;5075426;28;20588;-57
2020/12/09 12:25:00;;;;;;;32.97;18.60;;;12.30;68.00;;;;;;5075156;28;20446;-55
2020/12/09 12:27:27;;;;;;;33.13;18.30;;;12.30;67.90;;;;;;5074941;28;20529;-57
2020/12/09 12:29:54;;;;;;;32.03;18.10;;;12.30;67.80;;;;;;5072738;28;20537;-56
2020/12/09 12:32:20;;;;;;;34.30;18.57;;;12.30;67.60;;;;;;5074729;28;20472;-53
2020/12/09 12:34:48;;;;;;;33.23;18.70;;;12.30;67.60;;;;;;5062559;28;20434;-57